sensor_id;sensor_type;location;lat;lon;timestamp;P1;durP1;ratioP1;P2;durP2;ratioP2
75156;SDS011;63736;50.076;8.198;2023-08-06T00:00:37;232.40;;;30.50;;
75156;SDS011;63736;50.076;8.198;2023-08-06T00:03:02;232.52;;;30.10;;
75156;SDS011;63736;50.076;8.198;2023-08-06T00:05:28;232.10;;;30.00;;
75156;SDS011;63736;50.076;8.198;2023-08-06T00:07:53;233.07;;;30.27;;
75156;SDS011;63736;50.076;8.198;2023-08-06T00:10:18;233.40;;;30.15;;
75156;SDS011;63736;50.076;8.198;2023-08-06T08:28:07;239.70;;;31.00;;
75156;SDS011;63736;50.076;8.198;2023-08-06T08:30:33;230.23;;;31.47;;
75156;SDS011;63736;50.076;8.198;2023-08-06T08:32:58;231.10;;;32.10;;
75156;SDS011;63736;50.076;8.198;2023-08-06T08:35:23;222.95;;;31.75;;
75156;SDS011;63736;50.076;8.198;2023-08-06T08:37:49;173.30;;;31.30;;
75156;SDS011;63736;50.076;8.198;2023-08-06T08:40:15;144.40;;;32.55;;
75156;SDS011;63736;50.076;8.198;2023-08-06T08:42:40;125.27;;;31.70;;
75156;SDS011;63736;50.076;8.198;2023-08-06T08:45:10;120.00;;;31.60;;
75156;SDS011;63736;50.076;8.198;2023-08-06T08:47:39;111.10;;;31.53;;
75156;SDS011;63736;50.076;8.198;2023-08-06T08:50:06;102.40;;;32.03;;
75156;SDS011;63736;50.076;8.198;2023-08-06T08:52:33;94.67;;;32.67;;
75156;SDS011;63736;50.076;8.198;2023-08-06T08:55:00;88.83;;;30.83;;
75156;SDS011;63736;50.076;8.198;2023-08-06T08:57:26;91.37;;;31.90;;
75156;SDS011;63736;50.076;8.198;2023-08-06T08:59:52;93.97;;;32.37;;
75156;SDS011;63736;50.076;8.198;2023-08-06T09:02:17;93.47;;;32.50;;
75156;SDS011;63736;50.076;8.198;2023-08-06T09:04:44;82.60;;;30.27;;
75156;SDS011;63736;50.076;8.198;2023-08-06T09:07:10;82.93;;;30.20;;
75156;SDS011;63736;50.076;8.198;2023-08-06T09:09:40;82.40;;;30.23;;
75156;SDS011;63736;50.076;8.198;2023-08-06T09:12:11;81.17;;;29.17;;
75156;SDS011;63736;50.076;8.198;2023-08-06T09:14:39;79.73;;;28.87;;
75156;SDS011;63736;50.076;8.198;2023-08-06T09:17:05;79.77;;;28.80;;
75156;SDS011;63736;50.076;8.198;2023-08-06T09:19:31;77.27;;;29.17;;
75156;SDS011;63736;50.076;8.198;2023-08-06T09:21:56;75.93;;;32.90;;
75156;SDS011;63736;50.076;8.198;2023-08-06T09:24:22;75.10;;;33.70;;
75156;SDS011;63736;50.076;8.198;2023-08-06T09:26:47;76.03;;;33.63;;
75156;SDS011;63736;50.076;8.198;2023-08-06T09:29:13;85.80;;;31.97;;
75156;SDS011;63736;50.076;8.198;2023-08-06T09:31:43;78.27;;;29.77;;
75156;SDS011;63736;50.076;8.198;2023-08-06T09:34:20;77.87;;;28.70;;
75156;SDS011;63736;50.076;8.198;2023-08-06T09:36:53;74.77;;;35.47;;
75156;SDS011;63736;50.076;8.198;2023-08-06T09:39:19;77.10;;;29.70;;
75156;SDS011;63736;50.076;8.198;2023-08-06T09:41:46;84.60;;;30.80;;
75156;SDS011;63736;50.076;8.198;2023-08-06T09:44:17;98.25;;;33.95;;
75156;SDS011;63736;50.076;8.198;2023-08-06T10:03:52;175.10;;;30.85;;
75156;SDS011;63736;50.076;8.198;2023-08-06T10:06:19;173.00;;;31.50;;
75156;SDS011;63736;50.076;8.198;2023-08-06T10:08:45;157.75;;;32.00;;
75156;SDS011;63736;50.076;8.198;2023-08-06T10:11:10;78.00;;;34.40;;
75156;SDS011;63736;50.076;8.198;2023-08-06T10:13:38;109.82;;;33.70;;
75156;SDS011;63736;50.076;8.198;2023-08-06T10:16:04;104.10;;;33.90;;
75156;SDS011;63736;50.076;8.198;2023-08-06T10:18:30;101.57;;;33.45;;
75156;SDS011;63736;50.076;8.198;2023-08-06T10:20:55;104.30;;;33.60;;
75156;SDS011;63736;50.076;8.198;2023-08-06T10:23:21;104.60;;;33.58;;
75156;SDS011;63736;50.076;8.198;2023-08-06T10:25:58;103.77;;;33.30;;
75156;SDS011;63736;50.076;8.198;2023-08-06T10:28:24;100.25;;;32.33;;
75156;SDS011;63736;50.076;8.198;2023-08-06T10:31:00;95.40;;;32.43;;
75156;SDS011;63736;50.076;8.198;2023-08-06T10:33:26;91.27;;;31.87;;
75156;SDS011;63736;50.076;8.198;2023-08-06T10:36:06;94.67;;;31.83;;
75156;SDS011;63736;50.076;8.198;2023-08-06T10:38:34;97.97;;;32.75;;
75156;SDS011;63736;50.076;8.198;2023-08-06T10:41:02;112.75;;;32.65;;
75156;SDS011;63736;50.076;8.198;2023-08-06T10:43:32;91.35;;;32.00;;
75156;SDS011;63736;50.076;8.198;2023-08-06T10:45:59;95.33;;;31.37;;
75156;SDS011;63736;50.076;8.198;2023-08-06T10:48:43;92.20;;;30.35;;
75156;SDS011;63736;50.076;8.198;2023-08-06T10:51:11;115.90;;;31.40;;
75156;SDS011;63736;50.076;8.198;2023-08-06T10:53:38;145.20;;;30.90;;
75156;SDS011;63736;50.076;8.198;2023-08-06T10:58:43;147.97;;;31.40;;
75156;SDS011;63736;50.076;8.198;2023-08-06T11:01:10;148.80;;;31.60;;
75156;SDS011;63736;50.076;8.198;2023-08-06T11:03:35;129.80;;;31.45;;
75156;SDS011;63736;50.076;8.198;2023-08-06T11:06:01;141.30;;;30.45;;
75156;SDS011;63736;50.076;8.198;2023-08-06T11:08:28;142.13;;;31.57;;
75156;SDS011;63736;50.076;8.198;2023-08-06T11:11:08;146.40;;;30.70;;
75156;SDS011;63736;50.076;8.198;2023-08-06T11:13:36;131.70;;;32.00;;
75156;SDS011;63736;50.076;8.198;2023-08-06T11:16:02;146.90;;;30.65;;
75156;SDS011;63736;50.076;8.198;2023-08-06T11:18:28;147.80;;;30.87;;
75156;SDS011;63736;50.076;8.198;2023-08-06T11:20:53;147.70;;;30.80;;
75156;SDS011;63736;50.076;8.198;2023-08-06T11:23:19;147.50;;;31.00;;
75156;SDS011;63736;50.076;8.198;2023-08-06T11:25:44;147.70;;;30.50;;
75156;SDS011;63736;50.076;8.198;2023-08-06T11:28:11;147.00;;;30.60;;
75156;SDS011;63736;50.076;8.198;2023-08-06T11:30:37;146.30;;;30.20;;
75156;SDS011;63736;50.076;8.198;2023-08-06T11:33:02;147.40;;;30.90;;
75156;SDS011;63736;50.076;8.198;2023-08-06T11:35:28;148.05;;;30.55;;
75156;SDS011;63736;50.076;8.198;2023-08-06T11:37:53;148.30;;;30.50;;
75156;SDS011;63736;50.076;8.198;2023-08-06T11:40:18;148.20;;;30.40;;
75156;SDS011;63736;50.076;8.198;2023-08-06T11:42:46;148.00;;;30.30;;
75156;SDS011;63736;50.076;8.198;2023-08-06T11:45:11;149.15;;;30.60;;
75156;SDS011;63736;50.076;8.198;2023-08-06T11:47:40;149.60;;;31.10;;
75156;SDS011;63736;50.076;8.198;2023-08-06T11:50:06;149.65;;;30.40;;
75156;SDS011;63736;50.076;8.198;2023-08-06T11:52:31;150.00;;;30.50;;
75156;SDS011;63736;50.076;8.198;2023-08-06T11:55:04;149.70;;;30.20;;
75156;SDS011;63736;50.076;8.198;2023-08-06T11:57:35;149.40;;;30.25;;
75156;SDS011;63736;50.076;8.198;2023-08-06T12:00:09;149.50;;;30.05;;
75156;SDS011;63736;50.076;8.198;2023-08-06T12:02:36;150.35;;;30.60;;
75156;SDS011;63736;50.076;8.198;2023-08-06T12:05:12;149.65;;;30.10;;
75156;SDS011;63736;50.076;8.198;2023-08-06T12:07:46;150.15;;;30.30;;
75156;SDS011;63736;50.076;8.198;2023-08-06T12:10:13;150.45;;;30.35;;
75156;SDS011;63736;50.076;8.198;2023-08-06T12:12:39;150.93;;;30.27;;
75156;SDS011;63736;50.076;8.198;2023-08-06T12:15:05;151.50;;;30.20;;
75156;SDS011;63736;50.076;8.198;2023-08-06T12:17:32;151.60;;;30.20;;
75156;SDS011;63736;50.076;8.198;2023-08-06T12:19:58;152.00;;;30.25;;
75156;SDS011;63736;50.076;8.198;2023-08-06T12:22:23;145.13;;;31.33;;
75156;SDS011;63736;50.076;8.198;2023-08-06T12:24:49;152.20;;;30.50;;
75156;SDS011;63736;50.076;8.198;2023-08-06T12:27:14;144.65;;;31.45;;
75156;SDS011;63736;50.076;8.198;2023-08-06T12:29:44;152.10;;;30.40;;
75156;SDS011;63736;50.076;8.198;2023-08-06T12:32:12;153.70;;;30.40;;
75156;SDS011;63736;50.076;8.198;2023-08-06T12:34:38;154.45;;;30.70;;
75156;SDS011;63736;50.076;8.198;2023-08-06T12:37:04;153.70;;;30.20;;
75156;SDS011;63736;50.076;8.198;2023-08-06T12:39:30;145.53;;;30.17;;
75156;SDS011;63736;50.076;8.198;2023-08-06T12:41:56;154.60;;;32.00;;
75156;SDS011;63736;50.076;8.198;2023-08-06T12:44:22;145.98;;;30.90;;
75156;SDS011;63736;50.076;8.198;2023-08-06T12:46:49;153.40;;;31.20;;
75156;SDS011;63736;50.076;8.198;2023-08-06T12:49:14;153.60;;;30.40;;
75156;SDS011;63736;50.076;8.198;2023-08-06T12:51:39;154.10;;;31.03;;
75156;SDS011;63736;50.076;8.198;2023-08-06T12:54:05;153.90;;;30.00;;
75156;SDS011;63736;50.076;8.198;2023-08-06T12:56:30;154.70;;;30.40;;
75156;SDS011;63736;50.076;8.198;2023-08-06T12:58:55;155.40;;;30.90;;
75156;SDS011;63736;50.076;8.198;2023-08-06T13:01:21;155.70;;;30.77;;
75156;SDS011;63736;50.076;8.198;2023-08-06T13:03:46;155.10;;;30.40;;
75156;SDS011;63736;50.076;8.198;2023-08-06T13:06:11;156.70;;;30.30;;
75156;SDS011;63736;50.076;8.198;2023-08-06T13:08:37;156.90;;;30.00;;
75156;SDS011;63736;50.076;8.198;2023-08-06T13:11:02;156.87;;;29.97;;
75156;SDS011;63736;50.076;8.198;2023-08-06T13:13:28;149.30;;;30.85;;
75156;SDS011;63736;50.076;8.198;2023-08-06T13:15:53;156.30;;;30.40;;
75156;SDS011;63736;50.076;8.198;2023-08-06T13:18:18;157.50;;;30.70;;
75156;SDS011;63736;50.076;8.198;2023-08-06T13:20:44;149.00;;;30.90;;
75156;SDS011;63736;50.076;8.198;2023-08-06T13:23:11;157.40;;;31.30;;
75156;SDS011;63736;50.076;8.198;2023-08-06T13:25:40;157.30;;;30.20;;
75156;SDS011;63736;50.076;8.198;2023-08-06T13:28:05;163.60;;;30.10;;
75156;SDS011;63736;50.076;8.198;2023-08-06T13:30:31;164.20;;;30.33;;
75156;SDS011;63736;50.076;8.198;2023-08-06T13:32:56;163.57;;;29.67;;
75156;SDS011;63736;50.076;8.198;2023-08-06T13:35:22;165.00;;;30.00;;
75156;SDS011;63736;50.076;8.198;2023-08-06T13:37:48;166.50;;;31.10;;
75156;SDS011;63736;50.076;8.198;2023-08-06T13:40:13;167.80;;;29.90;;
75156;SDS011;63736;50.076;8.198;2023-08-06T13:42:39;169.07;;;31.10;;
75156;SDS011;63736;50.076;8.198;2023-08-06T13:45:05;160.50;;;30.03;;
75156;SDS011;63736;50.076;8.198;2023-08-06T13:47:31;170.00;;;31.25;;
75156;SDS011;63736;50.076;8.198;2023-08-06T13:49:56;161.10;;;30.60;;
75156;SDS011;63736;50.076;8.198;2023-08-06T13:52:21;168.50;;;31.00;;
75156;SDS011;63736;50.076;8.198;2023-08-06T13:54:47;170.35;;;30.40;;
75156;SDS011;63736;50.076;8.198;2023-08-06T13:57:12;162.80;;;30.60;;
75156;SDS011;63736;50.076;8.198;2023-08-06T13:59:37;168.55;;;30.00;;
75156;SDS011;63736;50.076;8.198;2023-08-06T14:02:03;169.00;;;29.80;;
75156;SDS011;63736;50.076;8.198;2023-08-06T14:04:29;169.70;;;29.67;;
75156;SDS011;63736;50.076;8.198;2023-08-06T14:06:54;163.70;;;30.20;;
75156;SDS011;63736;50.076;8.198;2023-08-06T14:09:19;170.00;;;29.95;;
75156;SDS011;63736;50.076;8.198;2023-08-06T14:11:45;170.30;;;29.60;;
75156;SDS011;63736;50.076;8.198;2023-08-06T14:14:10;171.07;;;29.90;;
75156;SDS011;63736;50.076;8.198;2023-08-06T14:16:36;172.20;;;31.00;;
75156;SDS011;63736;50.076;8.198;2023-08-06T14:19:01;171.70;;;29.60;;
75156;SDS011;63736;50.076;8.198;2023-08-06T14:21:27;171.90;;;29.60;;
75156;SDS011;63736;50.076;8.198;2023-08-06T14:23:55;173.20;;;30.10;;
75156;SDS011;63736;50.076;8.198;2023-08-06T14:26:21;172.47;;;29.63;;
75156;SDS011;63736;50.076;8.198;2023-08-06T14:28:46;173.00;;;29.40;;
75156;SDS011;63736;50.076;8.198;2023-08-06T14:31:11;165.40;;;30.40;;
75156;SDS011;63736;50.076;8.198;2023-08-06T14:33:37;172.40;;;29.85;;
75156;SDS011;63736;50.076;8.198;2023-08-06T14:36:02;173.43;;;30.00;;
75156;SDS011;63736;50.076;8.198;2023-08-06T14:38:27;164.65;;;30.15;;
75156;SDS011;63736;50.076;8.198;2023-08-06T14:40:53;172.00;;;29.60;;
75156;SDS011;63736;50.076;8.198;2023-08-06T14:43:18;164.00;;;30.40;;
75156;SDS011;63736;50.076;8.198;2023-08-06T14:45:44;171.75;;;29.60;;
75156;SDS011;63736;50.076;8.198;2023-08-06T14:48:10;172.50;;;29.50;;
75156;SDS011;63736;50.076;8.198;2023-08-06T14:50:35;172.90;;;29.70;;
75156;SDS011;63736;50.076;8.198;2023-08-06T14:53:01;173.35;;;29.95;;
75156;SDS011;63736;50.076;8.198;2023-08-06T14:55:27;171.93;;;29.27;;
75156;SDS011;63736;50.076;8.198;2023-08-06T14:57:53;172.75;;;29.50;;
75156;SDS011;63736;50.076;8.198;2023-08-06T15:00:19;173.60;;;29.80;;
75156;SDS011;63736;50.076;8.198;2023-08-06T15:02:45;173.82;;;29.58;;
75156;SDS011;63736;50.076;8.198;2023-08-06T15:05:10;174.50;;;29.83;;
75156;SDS011;63736;50.076;8.198;2023-08-06T15:07:35;165.50;;;29.90;;
75156;SDS011;63736;50.076;8.198;2023-08-06T15:10:02;172.95;;;29.60;;
75156;SDS011;63736;50.076;8.198;2023-08-06T15:12:29;165.70;;;29.90;;
75156;SDS011;63736;50.076;8.198;2023-08-06T15:14:54;172.40;;;29.40;;
75156;SDS011;63736;50.076;8.198;2023-08-06T15:17:22;172.80;;;29.40;;
75156;SDS011;63736;50.076;8.198;2023-08-06T15:19:48;172.88;;;29.15;;
75156;SDS011;63736;50.076;8.198;2023-08-06T15:22:13;173.75;;;29.20;;
75156;SDS011;63736;50.076;8.198;2023-08-06T15:24:38;174.30;;;29.85;;
75156;SDS011;63736;50.076;8.198;2023-08-06T15:27:07;173.50;;;28.80;;
75156;SDS011;63736;50.076;8.198;2023-08-06T15:29:32;174.20;;;29.00;;
75156;SDS011;63736;50.076;8.198;2023-08-06T15:31:58;168.10;;;29.90;;
75156;SDS011;63736;50.076;8.198;2023-08-06T15:34:23;172.70;;;29.10;;
75156;SDS011;63736;50.076;8.198;2023-08-06T15:36:48;166.43;;;29.50;;
75156;SDS011;63736;50.076;8.198;2023-08-06T15:39:13;173.60;;;29.30;;
75156;SDS011;63736;50.076;8.198;2023-08-06T15:41:39;174.07;;;30.67;;
75156;SDS011;63736;50.076;8.198;2023-08-06T15:44:04;174.30;;;29.40;;
75156;SDS011;63736;50.076;8.198;2023-08-06T15:46:29;169.40;;;33.40;;
75156;SDS011;63736;50.076;8.198;2023-08-06T15:48:55;173.30;;;29.20;;
75156;SDS011;63736;50.076;8.198;2023-08-06T15:51:20;174.20;;;29.00;;
75156;SDS011;63736;50.076;8.198;2023-08-06T15:53:45;174.70;;;29.10;;
75156;SDS011;63736;50.076;8.198;2023-08-06T15:56:11;175.00;;;29.20;;
75156;SDS011;63736;50.076;8.198;2023-08-06T15:58:36;164.30;;;29.00;;
75156;SDS011;63736;50.076;8.198;2023-08-06T16:01:02;173.20;;;29.60;;
75156;SDS011;63736;50.076;8.198;2023-08-06T16:03:27;173.65;;;29.60;;
